Runaway Bay, Texas
Current Conditions -  °F | °C
As of 9:35 PM on Wednesday 22 Oct 2014 (Local Time) from KXBP Reporting Station
Scattered Clouds Scattered Clouds  
Wind Chill: 71°   Ceiling: Unl
Heat Index: 71°   Visibility: 10mi
Dew Point: 60°   Wind: 5mph
Humidity: 69%   Direction: 150°SSE
Pressure: 30.12"   Gusts: NA
Location:  33.1691°N, 97.8246°W
Report Text: KXBP 230235Z AUTO 15004KT 10SM SCT120 22/16 A3012 RMK AO2 T02160158
Loading
Personal Weather Stations






























Interactive Weather Map New forecast layout! Learn more

10-Day Weather Forecast

Advertisements
Track Severe Weather on mobile